Time;durP1;ratioP1;P1;durP2;ratioP2;P2;SDS_P1;SDS_P2;PMS_P1;PMS_P2;Temp;Humidity;BMP_temperature;BMP_pressure;BME280_temperature;BME280_humidity;BME280_pressure;Samples;Min_cycle;Max_cycle;Signal;HPM_P1;HPM_P2
2023/04/23 00:00:35;;;;;;;5.20;3.50;;;;;;;12.24;54.62;99635.54;107402;1250;70185;-74
2023/04/23 00:03:09;;;;;;;5.50;3.50;;;;;;;12.21;54.35;99636.85;106794;1250;73909;-76
2023/04/23 00:05:36;;;;;;;4.90;3.70;;;;;;;12.19;54.33;99640.23;108481;1250;61380;-79
2023/04/23 00:08:04;;;;;;;7.20;4.10;;;;;;;12.16;54.68;99643.20;109471;1250;60207;-77
2023/04/23 00:10:31;;;;;;;6.20;3.80;;;;;;;12.13;54.57;99645.33;109380;1254;72585;-77
2023/04/23 00:12:59;;;;;;;4.40;3.40;;;;;;;12.11;54.65;99647.29;108860;1251;69560;-75
2023/04/23 00:15:26;;;;;;;4.50;3.40;;;;;;;12.11;54.84;99646.60;108891;1250;72784;-74
2023/04/23 00:17:53;;;;;;;7.60;3.90;;;;;;;12.11;54.81;99651.06;107592;1250;60373;-74
2023/04/23 00:20:20;;;;;;;5.20;4.10;;;;;;;12.11;55.06;99651.57;107775;1256;60403;-76
2023/04/23 00:22:47;;;;;;;5.40;3.60;;;;;;;12.12;54.89;99649.37;109123;1250;73125;-78
2023/04/23 00:25:14;;;;;;;6.10;4.20;;;;;;;12.12;55.18;99655.19;109163;1253;70365;-73
2023/04/23 00:27:42;;;;;;;5.50;4.40;;;;;;;12.12;55.15;99653.22;108859;1250;72604;-75
2023/04/23 00:30:09;;;;;;;5.10;4.10;;;;;;;12.11;55.12;99657.46;108715;1250;61336;-74
2023/04/23 00:32:36;;;;;;;7.10;4.30;;;;;;;12.10;54.98;99657.21;108025;1252;59310;-74
2023/04/23 00:35:03;;;;;;;5.30;4.40;;;;;;;12.07;55.12;99655.41;107669;1257;73498;-75
2023/04/23 00:37:30;;;;;;;5.50;3.80;;;;;;;12.06;55.20;99655.09;108990;1251;71712;-73
2023/04/23 00:39:56;;;;;;;5.40;4.20;;;;;;;12.04;55.24;99657.20;108788;1251;70390;-77
2023/04/23 00:42:24;;;;;;;10.80;4.90;;;;;;;12.03;55.22;99655.58;108532;1256;59420;-77
2023/04/23 00:44:51;;;;;;;7.50;4.70;;;;;;;11.99;54.99;99655.96;107588;1256;60150;-76
2023/04/23 00:47:19;;;;;;;7.40;4.80;;;;;;;11.94;54.97;99656.25;106274;1253;71633;-77
2023/04/23 00:49:46;;;;;;;8.50;5.10;;;;;;;11.90;55.06;99658.60;106255;1251;71412;-79
2023/04/23 00:52:13;;;;;;;6.80;5.40;;;;;;;11.87;55.05;99659.14;106320;1254;73914;-78
2023/04/23 00:54:39;;;;;;;8.60;5.80;;;;;;;11.84;55.10;99660.02;106283;1254;60636;-81
2023/04/23 00:57:07;;;;;;;10.30;5.70;;;;;;;11.81;54.67;99662.88;106227;1257;61025;-80
2023/04/23 00:59:35;;;;;;;9.40;5.60;;;;;;;11.77;54.87;99657.80;106008;1253;74923;-79
2023/04/23 01:02:02;;;;;;;7.50;5.50;;;;;;;11.74;54.54;99660.13;106063;1251;68981;-81
2023/04/23 01:04:30;;;;;;;6.10;4.70;;;;;;;11.71;54.77;99661.31;106169;1253;73710;-77
2023/04/23 01:06:57;;;;;;;11.20;5.60;;;;;;;11.71;55.02;99661.26;106059;1254;60447;-76
2023/04/23 01:09:26;;;;;;;6.80;5.70;;;;;;;11.70;55.20;99661.81;106021;1250;60419;-76
2023/04/23 01:11:53;;;;;;;7.80;6.00;;;;;;;11.70;55.37;99660.59;105981;1256;74742;-77
2023/04/23 01:14:20;;;;;;;7.70;6.00;;;;;;;11.68;55.51;99655.84;105915;1256;68567;-75
2023/04/23 01:16:48;;;;;;;8.40;5.90;;;;;;;11.68;55.40;99660.51;105940;1251;73109;-75
2023/04/23 01:19:15;;;;;;;8.60;6.10;;;;;;;11.67;55.19;99658.95;106157;1251;60659;-76
2023/04/23 01:21:42;;;;;;;8.30;6.30;;;;;;;11.66;55.24;99658.02;105881;1253;61528;-75
2023/04/23 01:24:09;;;;;;;8.40;6.00;;;;;;;11.64;55.12;99656.14;106300;1254;73960;-78
2023/04/23 01:26:36;;;;;;;9.60;6.70;;;;;;;11.60;55.03;99657.42;106206;1251;71160;-77
2023/04/23 01:29:03;;;;;;;8.50;6.50;;;;;;;11.58;55.16;99662.63;105920;1253;73790;-78
2023/04/23 01:31:31;;;;;;;9.30;6.80;;;;;;;11.56;55.11;99664.11;106250;1250;61205;-77
2023/04/23 01:33:58;;;;;;;10.90;6.60;;;;;;;11.55;55.07;99659.25;106033;1250;61396;-77
2023/04/23 01:36:25;;;;;;;9.00;6.40;;;;;;;11.54;55.33;99665.78;106227;1250;74878;-78
2023/04/23 01:38:53;;;;;;;9.80;6.50;;;;;;;11.53;55.49;99663.10;106083;1253;68917;-77
2023/04/23 01:41:20;;;;;;;9.10;6.30;;;;;;;11.51;55.39;99667.61;106103;1252;71581;-80
2023/04/23 01:43:46;;;;;;;11.10;6.30;;;;;;;11.49;55.78;99665.82;106149;1257;60385;-77
2023/04/23 01:46:13;;;;;;;8.80;5.60;;;;;;;11.48;55.83;99667.02;105780;1253;60485;-75
2023/04/23 01:48:40;;;;;;;9.50;5.90;;;;;;;11.47;56.03;99670.28;106177;1257;75101;-79
2023/04/23 01:51:08;;;;;;;8.40;5.60;;;;;;;11.45;55.65;99671.59;106378;1256;68554;-75
2023/04/23 01:53:34;;;;;;;9.30;6.30;;;;;;;11.42;55.79;99668.91;106220;1251;72789;-75
2023/04/23 01:56:01;;;;;;;9.60;5.80;;;;;;;11.39;56.05;99672.42;106207;1254;60434;-72
2023/04/23 01:58:28;;;;;;;8.80;6.40;;;;;;;11.36;55.91;99671.50;105796;1251;60228;-74
2023/04/23 02:00:55;;;;;;;9.90;6.50;;;;;;;11.34;56.22;99670.70;106171;1254;73999;-74
2023/04/23 02:03:22;;;;;;;7.50;5.80;;;;;;;11.33;56.32;99672.77;106210;1253;71027;-77
2023/04/23 02:05:49;;;;;;;9.10;6.20;;;;;;;11.32;56.16;99673.45;106016;1253;71885;-78
2023/04/23 02:08:16;;;;;;;7.60;5.70;;;;;;;11.30;55.94;99678.05;106042;1250;61319;-78
2023/04/23 02:10:43;;;;;;;9.50;6.00;;;;;;;11.28;55.90;99674.73;106240;1250;60409;-78
2023/04/23 02:13:10;;;;;;;13.30;6.60;;;;;;;11.27;55.81;99673.72;106220;1250;73352;-77
2023/04/23 02:15:37;;;;;;;10.40;6.00;;;;;;;11.26;55.94;99679.84;106147;1251;69204;-79
2023/04/23 02:18:05;;;;;;;8.20;5.80;;;;;;;11.25;56.08;99675.54;106186;1256;72749;-76
2023/04/23 02:20:32;;;;;;;6.90;5.50;;;;;;;11.24;56.28;99675.59;106112;1254;60332;-77
2023/04/23 02:22:59;;;;;;;9.10;6.60;;;;;;;11.23;56.28;99677.33;106130;1250;60425;-76
2023/04/23 02:25:25;;;;;;;8.30;5.90;;;;;;;11.22;56.35;99677.60;106284;1254;74015;-76
2023/04/23 02:27:52;;;;;;;8.20;6.50;;;;;;;11.19;56.64;99679.64;106238;1256;70378;-75
2023/04/23 02:30:19;;;;;;;8.40;6.50;;;;;;;11.17;56.92;99682.38;106192;1254;72606;-75
2023/04/23 02:32:46;;;;;;;9.60;6.60;;;;;;;11.13;56.45;99682.63;106122;1251;62191;-78
2023/04/23 02:35:13;;;;;;;15.00;6.90;;;;;;;11.13;56.31;99680.77;106036;1250;61056;-77
2023/04/23 02:37:40;;;;;;;10.30;6.80;;;;;;;11.13;56.93;99684.22;105888;1259;74696;-75
2023/04/23 02:40:08;;;;;;;18.90;7.20;;;;;;;11.14;57.02;99688.77;106308;1250;71690;-76
2023/04/23 02:42:34;;;;;;;13.80;7.20;;;;;;;11.13;57.02;99687.94;107531;1254;72123;-75
2023/04/23 02:45:02;;;;;;;10.70;7.00;;;;;;;11.13;57.16;99688.84;106345;1255;60435;-76
2023/04/23 02:47:30;;;;;;;13.60;7.40;;;;;;;11.13;57.49;99689.38;106108;1251;60551;-74
2023/04/23 02:49:57;;;;;;;16.30;7.50;;;;;;;11.14;57.38;99690.40;106654;1254;74713;-75
2023/04/23 02:52:24;;;;;;;11.70;7.10;;;;;;;11.13;57.28;99689.95;106112;1258;69619;-74
2023/04/23 02:54:50;;;;;;;12.40;7.20;;;;;;;11.13;57.06;99694.77;106161;1255;70364;-76
2023/04/23 02:57:18;;;;;;;11.10;8.30;;;;;;;11.12;57.03;99692.70;106031;1253;60989;-76
2023/04/23 02:59:45;;;;;;;10.30;7.10;;;;;;;11.11;56.99;99694.36;106112;1250;61776;-77
2023/04/23 03:02:12;;;;;;;16.00;7.60;;;;;;;11.11;57.24;99695.79;106518;1256;74833;-75
2023/04/23 03:04:39;;;;;;;10.50;7.50;;;;;;;11.11;57.67;99694.36;106373;1256;68938;-74
2023/04/23 03:07:06;;;;;;;18.40;7.70;;;;;;;11.10;57.72;99696.50;106173;1253;73625;-74
2023/04/23 03:09:34;;;;;;;9.30;6.90;;;;;;;11.07;57.70;99698.80;106044;1256;60344;-77
2023/04/23 03:12:01;;;;;;;9.20;6.90;;;;;;;11.04;57.87;99701.94;106067;1252;61126;-75
2023/04/23 03:14:29;;;;;;;11.70;7.80;;;;;;;11.02;57.83;99703.95;106129;1256;73896;-77
2023/04/23 03:16:56;;;;;;;9.60;6.90;;;;;;;11.02;57.72;99704.06;106088;1256;71399;-76
2023/04/23 03:19:23;;;;;;;14.00;8.40;;;;;;;11.04;57.84;99706.76;106071;1256;72575;-76
2023/04/23 03:21:49;;;;;;;15.30;7.70;;;;;;;11.04;58.27;99706.55;106624;1253;61288;-79
2023/04/23 03:24:16;;;;;;;14.30;7.60;;;;;;;11.05;58.17;99712.87;108176;1251;60455;-76
2023/04/23 03:26:43;;;;;;;14.20;7.70;;;;;;;11.05;57.97;99712.98;106452;1257;73910;-75
2023/04/23 03:29:10;;;;;;;12.10;8.70;;;;;;;11.06;57.78;99714.41;106160;1257;70737;-79
2023/04/23 03:31:38;;;;;;;11.80;7.80;;;;;;;11.08;57.95;99717.67;106661;1252;73712;-80
2023/04/23 03:34:07;;;;;;;12.50;6.70;;;;;;;11.08;58.13;99717.48;106205;1257;60542;-79
2023/04/23 03:36:35;;;;;;;15.70;7.70;;;;;;;11.07;58.14;99725.31;106216;1251;60463;-77
2023/04/23 03:39:02;;;;;;;12.60;7.50;;;;;;;11.05;57.90;99724.30;106052;1250;74848;-75
2023/04/23 03:41:36;;;;;;;14.10;7.00;;;;;;;11.03;58.16;99729.52;106104;1254;70176;-74
2023/04/23 03:44:03;;;;;;;11.00;6.90;;;;;;;11.03;58.27;99729.20;105958;1253;73689;-74
2023/04/23 03:46:51;;;;;;;10.00;7.10;;;;;;;11.04;58.06;99726.43;106233;1250;61252;-75
2023/04/23 03:49:17;;;;;;;11.40;7.30;;;;;;;11.05;58.09;99729.71;106154;1249;61087;-79
2023/04/23 03:51:44;;;;;;;10.40;7.60;;;;;;;11.06;57.86;99729.50;106516;1254;74040;-78
2023/04/23 03:54:11;;;;;;;15.00;6.80;;;;;;;11.09;57.77;99733.13;106002;1257;68503;-77
2023/04/23 03:56:48;;;;;;;12.30;7.90;;;;;;;11.12;57.86;99736.27;106151;1254;71388;-79
2023/04/23 03:59:22;;;;;;;12.70;8.10;;;;;;;11.17;58.03;99735.42;106176;1251;60504;-77
2023/04/23 04:01:50;;;;;;;10.90;7.50;;;;;;;11.21;58.01;99737.97;106386;1253;61193;-78
2023/04/23 04:04:18;;;;;;;12.40;7.80;;;;;;;11.24;57.83;99739.55;106428;1250;74462;-78
2023/04/23 04:06:46;;;;;;;10.80;6.80;;;;;;;11.27;57.83;99739.84;106400;1257;69799;-79
2023/04/23 04:09:13;;;;;;;14.50;7.80;;;;;;;11.29;57.83;99743.08;106286;1254;70322;-79
2023/04/23 04:11:40;;;;;;;12.00;8.00;;;;;;;11.33;57.51;99748.16;106126;1252;60626;-82
2023/04/23 04:14:08;;;;;;;12.70;7.70;;;;;;;11.37;57.74;99747.14;106222;1253;61423;-79
2023/04/23 04:16:35;;;;;;;12.80;7.00;;;;;;;11.42;57.63;99746.62;106045;1250;211587;-78
2023/04/23 04:20:38;;;;;;;11.30;7.10;;;;;;;11.50;57.71;99748.91;102780;1304;601049;-75
2023/04/23 04:23:06;;;;;;;11.40;7.80;;;;;;;11.53;57.56;99753.02;105887;1257;61258;-74
2023/04/23 04:25:38;;;;;;;10.80;6.80;;;;;;;11.60;57.24;99752.75;105649;1258;59415;-76
2023/04/23 04:28:08;;;;;;;10.70;7.50;;;;;;;11.68;57.11;99753.04;105798;1256;70938;-74
2023/04/23 04:30:38;;;;;;;10.20;7.20;;;;;;;11.78;56.79;99760.47;105688;1257;70378;-76
2023/04/23 04:33:07;;;;;;;15.40;7.60;;;;;;;11.88;56.91;99757.48;105604;1260;174317;-74
2023/04/23 04:35:36;;;;;;;12.50;6.80;;;;;;;11.99;57.02;99761.63;105903;1257;59215;-75
2023/04/23 04:38:04;;;;;;;11.10;7.30;;;;;;;12.09;57.03;99760.87;105912;1254;61505;-74
2023/04/23 04:40:33;;;;;;;10.90;6.60;;;;;;;12.17;57.12;99763.67;105839;1261;73328;-72
2023/04/23 04:43:04;;;;;;;8.10;5.70;;;;;;;12.26;56.57;99763.66;106103;1257;69892;-74
2023/04/23 04:45:32;;;;;;;8.40;5.20;;;;;;;12.36;56.08;99764.39;106051;1254;73894;-75
2023/04/23 04:48:00;;;;;;;7.60;4.80;;;;;;;12.46;55.56;99771.23;106069;1254;60748;-76
2023/04/23 04:50:29;;;;;;;7.50;4.70;;;;;;;12.56;55.07;99769.63;106178;1252;59682;-80
2023/04/23 04:52:57;;;;;;;5.90;4.40;;;;;;;12.65;54.93;99771.50;106513;1258;71593;-77
2023/04/23 04:55:26;;;;;;;7.60;4.70;;;;;;;12.75;54.67;99771.94;106468;1260;68160;-76
2023/04/23 04:57:54;;;;;;;6.90;4.60;;;;;;;12.84;54.34;99772.98;106232;1257;72931;-77
2023/04/23 05:00:24;;;;;;;7.30;4.50;;;;;;;12.93;54.23;99774.91;105990;1257;59752;-82
2023/04/23 05:02:52;;;;;;;6.10;4.10;;;;;;;13.04;54.03;99775.48;106098;1253;61639;-81
2023/04/23 05:05:21;;;;;;;5.60;4.30;;;;;;;13.12;53.80;99773.55;106390;1254;74071;-77
2023/04/23 05:07:50;;;;;;;6.90;4.60;;;;;;;13.21;53.67;99775.35;106117;1254;70703;-81
2023/04/23 05:10:19;;;;;;;9.10;4.60;;;;;;;13.28;53.46;99780.12;106172;1257;73369;-81
2023/04/23 05:12:48;;;;;;;7.90;4.60;;;;;;;13.33;53.36;99783.19;106241;1254;59635;-77
2023/04/23 05:15:16;;;;;;;5.60;4.30;;;;;;;13.39;53.46;99786.13;105873;1259;59605;-75
2023/04/23 05:17:44;;;;;;;7.70;5.50;;;;;;;13.44;53.53;99785.16;105920;1254;70629;-76
2023/04/23 05:20:13;;;;;;;7.80;4.50;;;;;;;13.51;53.44;99789.40;105919;1257;70519;-75
2023/04/23 05:22:41;;;;;;;7.00;5.30;;;;;;;13.58;53.35;99792.85;105853;1254;72621;-73
2023/04/23 05:25:13;;;;;;;7.40;5.50;;;;;;;13.65;53.53;99797.58;105897;1257;59656;-75
2023/04/23 05:27:41;;;;;;;10.50;5.70;;;;;;;13.70;53.24;99799.90;105971;1259;61315;-75
2023/04/23 05:30:10;;;;;;;6.70;5.20;;;;;;;13.73;53.16;99803.27;105874;1259;74288;-76
2023/04/23 05:32:38;;;;;;;7.70;5.40;;;;;;;13.77;53.12;99805.16;105756;1257;70570;-79
2023/04/23 05:35:07;;;;;;;11.60;5.80;;;;;;;13.81;53.13;99805.86;105814;1254;73456;-76
2023/04/23 05:37:36;;;;;;;8.10;5.80;;;;;;;13.86;53.02;99808.81;105804;1253;60829;-76
2023/04/23 05:40:06;;;;;;;8.90;5.50;;;;;;;13.93;52.97;99811.38;105891;1259;61845;-75
2023/04/23 05:42:34;;;;;;;10.00;5.70;;;;;;;14.00;53.05;99814.45;105974;1254;72106;-74
2023/04/23 05:45:04;;;;;;;12.40;5.10;;;;;;;14.05;52.71;99813.98;106054;1254;71355;-78
2023/04/23 05:47:36;;;;;;;6.70;4.90;;;;;;;14.09;52.80;99812.91;106136;1259;73139;-76
2023/04/23 05:50:05;;;;;;;9.80;4.90;;;;;;;14.13;52.66;99813.70;106883;1254;59790;-75
2023/04/23 05:52:36;;;;;;;8.50;4.60;;;;;;;14.20;52.50;99820.05;106531;1260;59623;-76
2023/04/23 05:55:06;;;;;;;6.70;4.90;;;;;;;14.25;52.15;99815.67;106018;1254;72038;-78
2023/04/23 05:57:36;;;;;;;6.30;4.80;;;;;;;14.31;52.20;99819.71;106061;1256;68285;-79
2023/04/23 06:00:08;;;;;;;8.60;5.40;;;;;;;14.38;51.75;99820.81;105941;1257;72192;-78
2023/04/23 06:02:40;;;;;;;8.00;4.60;;;;;;;14.45;51.66;99818.86;106071;1257;59500;-80
2023/04/23 06:05:08;;;;;;;5.10;3.80;;;;;;;14.55;51.54;99821.85;105913;1259;60544;-80
2023/04/23 06:07:37;;;;;;;5.30;4.60;;;;;;;14.65;51.31;99816.57;105914;1257;72753;-81
2023/04/23 06:10:07;;;;;;;6.50;4.10;;;;;;;14.75;51.42;99819.80;105672;1253;71802;-81
2023/04/23 06:12:38;;;;;;;10.30;4.80;;;;;;;14.84;51.04;99822.16;106019;1257;70675;-79
2023/04/23 06:15:07;;;;;;;6.00;4.80;;;;;;;14.93;50.57;99820.40;106011;1260;60098;-77
2023/04/23 06:17:37;;;;;;;6.90;5.10;;;;;;;15.03;50.47;99826.02;105894;1254;60195;-74
2023/04/23 06:20:06;;;;;;;7.30;5.00;;;;;;;15.17;50.01;99826.95;105986;1253;73073;-78
2023/04/23 06:22:35;;;;;;;9.60;5.00;;;;;;;15.31;49.81;99826.54;105813;1254;69756;-70
2023/04/23 06:25:04;;;;;;;8.00;5.00;;;;;;;15.48;49.79;99823.64;105954;1257;73033;-71
2023/04/23 06:27:32;;;;;;;9.60;5.40;;;;;;;15.66;49.71;99827.27;105795;1260;59699;-73
2023/04/23 06:30:06;;;;;;;6.60;4.90;;;;;;;15.80;49.23;99827.55;105757;1260;59685;-74
2023/04/23 06:32:36;;;;;;;7.10;4.90;;;;;;;15.93;48.80;99824.84;105614;1260;72419;-75
2023/04/23 06:35:05;;;;;;;7.80;5.20;;;;;;;16.05;48.34;99825.79;105653;1254;70398;-76
2023/04/23 06:37:36;;;;;;;9.40;5.30;;;;;;;16.19;48.04;99829.17;105649;1259;73968;-76
2023/04/23 06:40:05;;;;;;;8.10;5.30;;;;;;;16.34;47.65;99833.08;105910;1257;59614;-77
2023/04/23 06:42:33;;;;;;;9.30;5.70;;;;;;;16.45;47.40;99831.02;105953;1254;59667;-76
2023/04/23 06:45:17;;;;;;;10.10;5.30;;;;;;;16.57;46.69;99833.42;105921;1253;71890;-77
2023/04/23 06:47:45;;;;;;;11.30;5.10;;;;;;;16.63;46.49;99836.20;105933;1254;70431;-78
2023/04/23 06:50:13;;;;;;;7.90;4.70;;;;;;;16.69;46.13;99832.70;105635;1255;73727;-75
2023/04/23 06:52:42;;;;;;;7.20;5.30;;;;;;;16.74;46.11;99834.39;105879;1255;59797;-77
2023/04/23 06:55:10;;;;;;;6.10;4.50;;;;;;;16.78;46.15;99832.83;105938;1257;60346;-79
2023/04/23 06:57:42;;;;;;;7.80;5.00;;;;;;;16.84;46.05;99835.88;105879;1257;74289;-78
2023/04/23 07:00:11;;;;;;;4.90;4.40;;;;;;;16.86;45.80;99836.40;106002;1257;69095;-75
2023/04/23 07:02:41;;;;;;;8.90;5.30;;;;;;;16.87;45.98;99837.60;105817;1259;73391;-76
2023/04/23 07:05:10;;;;;;;8.10;5.00;;;;;;;16.93;45.79;99839.54;105757;1259;59753;-79
2023/04/23 07:07:39;;;;;;;7.40;4.80;;;;;;;17.00;45.37;99837.05;105907;1254;60828;-79
2023/04/23 07:10:09;;;;;;;7.00;4.90;;;;;;;17.08;44.47;99836.88;105752;1257;74287;-79
2023/04/23 07:12:37;;;;;;;6.80;5.10;;;;;;;17.15;44.00;99836.59;105914;1254;71322;-76
2023/04/23 07:15:06;;;;;;;7.40;5.00;;;;;;;17.21;43.71;99838.27;105856;1253;72149;-79
2023/04/23 07:17:35;;;;;;;7.40;5.60;;;;;;;17.27;43.40;99836.40;105858;1256;61315;-76
2023/04/23 07:20:05;;;;;;;6.70;5.50;;;;;;;17.32;43.11;99834.25;105836;1259;59604;-76
2023/04/23 07:22:33;;;;;;;9.00;6.20;;;;;;;17.40;43.14;99836.59;105842;1259;73752;-76
2023/04/23 07:25:04;;;;;;;6.50;5.30;;;;;;;17.49;43.07;99836.80;105547;1253;71376;-76
2023/04/23 07:27:33;;;;;;;7.60;6.00;;;;;;;17.58;42.79;99838.39;105865;1253;72977;-77
2023/04/23 07:30:01;;;;;;;11.00;5.90;;;;;;;17.63;42.75;99841.60;105854;1257;60330;-76
2023/04/23 07:32:30;;;;;;;7.40;6.00;;;;;;;17.68;42.61;99838.73;105908;1254;60587;-77
2023/04/23 07:34:58;;;;;;;7.40;5.50;;;;;;;17.73;42.68;99841.80;105886;1253;74125;-76
2023/04/23 07:37:27;;;;;;;8.10;5.60;;;;;;;17.78;42.48;99844.73;105814;1260;70841;-76
2023/04/23 07:39:55;;;;;;;8.70;5.40;;;;;;;17.79;42.36;99845.80;109189;1253;73459;-75
2023/04/23 07:42:23;;;;;;;8.90;5.40;;;;;;;17.82;42.43;99848.80;106892;1256;60744;-77
2023/04/23 07:44:51;;;;;;;9.40;5.40;;;;;;;17.85;42.28;99849.33;105946;1253;59638;-75
2023/04/23 07:47:20;;;;;;;7.70;5.20;;;;;;;17.85;42.33;99849.41;105724;1257;72843;-76
2023/04/23 07:49:48;;;;;;;6.50;5.20;;;;;;;17.83;42.44;99846.36;105849;1257;71636;-77
2023/04/23 07:52:17;;;;;;;7.70;5.00;;;;;;;17.83;42.60;99846.90;105883;1254;73155;-76
2023/04/23 07:54:45;;;;;;;7.20;5.70;;;;;;;17.83;42.80;99842.89;105984;1255;61410;-80
2023/04/23 07:57:13;;;;;;;6.90;5.80;;;;;;;17.84;43.07;99843.90;106772;1260;59886;-79
2023/04/23 07:59:42;;;;;;;8.00;6.00;;;;;;;17.85;43.18;99840.34;108133;1254;72923;-83
2023/04/23 08:02:22;;;;;;;9.80;5.90;;;;;;;17.92;43.53;99841.05;106154;1254;70603;-84
2023/04/23 08:04:51;;;;;;;11.70;5.90;;;;;;;17.99;43.61;99841.36;106642;1254;73674;-75
2023/04/23 08:07:20;;;;;;;8.40;5.60;;;;;;;18.00;43.86;99838.30;105878;1254;61361;-77
2023/04/23 08:09:48;;;;;;;9.10;6.30;;;;;;;18.02;44.06;99840.73;105821;1254;61486;-77
2023/04/23 08:12:18;;;;;;;8.20;5.30;;;;;;;18.08;44.17;99836.35;105809;1254;73887;-77
2023/04/23 08:14:46;;;;;;;10.80;5.50;;;;;;;18.18;44.16;99834.97;105886;1253;71251;-75
2023/04/23 08:17:14;;;;;;;8.10;5.90;;;;;;;18.23;44.15;99832.84;105884;1253;73621;-72
2023/04/23 08:19:42;;;;;;;12.40;5.90;;;;;;;18.28;44.14;99830.11;105832;1254;59759;-75
2023/04/23 08:22:12;;;;;;;7.60;5.00;;;;;;;18.35;43.89;99827.39;105667;1256;59542;-77
2023/04/23 08:24:40;;;;;;;7.70;5.00;;;;;;;18.42;43.62;99828.70;105795;1259;72749;-79
2023/04/23 08:27:09;;;;;;;6.50;5.50;;;;;;;18.49;43.55;99824.75;105830;1259;71233;-76
2023/04/23 08:29:37;;;;;;;7.40;5.60;;;;;;;18.58;43.42;99832.20;105905;1253;71422;-72
2023/04/23 08:32:06;;;;;;;7.30;5.00;;;;;;;18.67;43.13;99828.52;105798;1254;60479;-74
2023/04/23 08:34:34;;;;;;;10.80;5.00;;;;;;;18.77;42.81;99827.16;105924;1256;61404;-74
2023/04/23 08:37:03;;;;;;;5.60;4.60;;;;;;;18.85;42.67;99826.91;105851;1254;75072;-72
2023/04/23 08:39:33;;;;;;;7.60;4.20;;;;;;;18.92;42.17;99825.04;105809;1253;70548;-74
2023/04/23 08:42:07;;;;;;;6.40;4.30;;;;;;;18.98;42.00;99824.31;105812;1254;73116;-74
2023/04/23 08:44:37;;;;;;;6.40;4.60;;;;;;;19.06;41.99;99823.76;105965;1256;61155;-73
2023/04/23 08:47:11;;;;;;;5.90;3.90;;;;;;;19.14;40.14;99820.45;106014;1253;60543;-74
2023/04/23 08:49:40;;;;;;;5.00;3.50;;;;;;;19.19;39.26;99818.05;105730;1257;73192;-72
2023/04/23 08:52:15;;;;;;;4.10;3.70;;;;;;;19.21;39.22;99817.97;105925;1254;69592;-72
2023/04/23 08:54:45;;;;;;;4.20;3.40;;;;;;;19.20;38.44;99815.40;105650;1260;71465;-73
2023/04/23 08:57:15;;;;;;;5.00;3.80;;;;;;;19.20;38.43;99814.33;105636;1253;61192;-71
2023/04/23 08:59:44;;;;;;;5.10;3.40;;;;;;;19.18;38.18;99808.89;105867;1254;60543;-74
2023/04/23 09:02:14;;;;;;;6.10;3.50;;;;;;;19.15;37.83;99807.96;105992;1257;73175;-77
2023/04/23 09:04:44;;;;;;;4.80;2.90;;;;;;;19.09;37.57;99803.88;106012;1254;71071;-77
2023/04/23 09:07:12;;;;;;;6.10;3.60;;;;;;;19.05;37.49;99806.45;105903;1254;71508;-76
2023/04/23 09:09:41;;;;;;;4.60;3.30;;;;;;;19.02;37.49;99806.63;106279;1253;61799;-77
2023/04/23 09:12:10;;;;;;;6.70;3.40;;;;;;;19.01;37.43;99803.23;105839;1254;60444;-78
2023/04/23 09:14:38;;;;;;;5.50;3.20;;;;;;;18.99;37.45;99805.51;105692;1262;75277;-77
2023/04/23 09:17:06;;;;;;;3.60;3.10;;;;;;;18.97;37.42;99806.56;105845;1256;68273;-74
2023/04/23 09:19:36;;;;;;;4.00;3.40;;;;;;;18.94;37.05;99804.02;105819;1253;73146;-72
2023/04/23 09:22:04;;;;;;;3.40;3.00;;;;;;;18.91;37.01;99804.16;105778;1254;60828;-74
2023/04/23 09:24:32;;;;;;;4.30;3.20;;;;;;;18.90;37.12;99799.55;105758;1257;60636;-76
2023/04/23 09:27:01;;;;;;;7.20;2.90;;;;;;;18.89;37.14;99803.45;105632;1254;73787;-74
2023/04/23 09:29:29;;;;;;;7.70;3.30;;;;;;;18.85;37.23;99802.23;105919;1254;70573;-74
2023/04/23 09:32:08;;;;;;;4.80;3.20;;;;;;;18.79;37.17;99797.92;105918;1254;73943;-74
2023/04/23 09:34:36;;;;;;;4.80;3.50;;;;;;;18.76;36.82;99799.27;105962;1259;60414;-73
2023/04/23 09:37:06;;;;;;;5.30;3.60;;;;;;;18.70;36.84;99802.83;105714;1254;60623;-74
2023/04/23 09:39:35;;;;;;;5.50;3.70;;;;;;;18.68;36.94;99798.46;106045;1254;73303;-77
2023/04/23 09:42:04;;;;;;;4.00;3.20;;;;;;;18.69;37.32;99800.31;106126;1253;71991;-77
2023/04/23 09:44:32;;;;;;;4.70;3.30;;;;;;;18.70;37.70;99800.88;106054;1253;73037;-77
2023/04/23 09:47:08;;;;;;;5.70;3.20;;;;;;;18.75;38.04;99799.81;106015;1254;60531;-75
2023/04/23 09:49:49;;;;;;;6.60;3.80;;;;;;;18.80;38.22;99800.15;105791;1260;60437;-75
2023/04/23 09:52:18;;;;;;;4.50;3.70;;;;;;;18.86;38.12;99797.99;105781;1254;72771;-72
2023/04/23 09:54:46;;;;;;;3.50;3.20;;;;;;;18.93;38.03;99800.05;106178;1253;68953;-73
2023/04/23 09:57:14;;;;;;;4.00;3.50;;;;;;;18.98;38.01;99800.53;105837;1253;73930;-74
2023/04/23 09:59:43;;;;;;;4.90;3.40;;;;;;;19.03;37.94;99801.52;105930;1254;60645;-74
2023/04/23 10:02:18;;;;;;;3.60;3.30;;;;;;;19.09;37.81;99799.61;105830;1254;60537;-74
2023/04/23 10:04:50;;;;;;;5.30;3.60;;;;;;;19.16;37.71;99801.15;105845;1253;73388;-74
2023/04/23 10:07:21;;;;;;;7.40;3.10;;;;;;;19.21;37.39;99797.78;105905;1260;69235;-74
2023/04/23 10:09:50;;;;;;;5.00;3.60;;;;;;;19.28;37.06;99797.05;105826;1259;73428;-73
2023/04/23 10:12:18;;;;;;;4.00;3.50;;;;;;;19.35;36.64;99791.88;105886;1254;61501;-76
2023/04/23 10:14:52;;;;;;;5.80;3.40;;;;;;;19.44;36.57;99794.63;105918;1254;61481;-74
2023/04/23 10:17:20;;;;;;;3.70;3.20;;;;;;;19.56;36.31;99794.16;105933;1257;73814;-74
2023/04/23 10:19:49;;;;;;;6.10;3.30;;;;;;;19.63;36.19;99794.54;105992;1258;70009;-73
2023/04/23 10:22:17;;;;;;;5.90;3.20;;;;;;;19.74;36.12;99791.59;105964;1253;73698;-75
2023/04/23 10:24:51;;;;;;;5.90;3.30;;;;;;;19.90;35.91;99793.79;105933;1259;60779;-73
2023/04/23 10:27:19;;;;;;;4.10;3.30;;;;;;;20.08;35.65;99789.20;105887;1254;61599;-72
2023/04/23 10:29:51;;;;;;;5.70;3.40;;;;;;;20.23;35.21;99791.42;105962;1256;73805;-74
2023/04/23 10:32:19;;;;;;;3.90;3.30;;;;;;;20.38;34.90;99794.71;105839;1257;69513;-75
2023/04/23 10:34:47;;;;;;;6.20;3.40;;;;;;;20.52;34.34;99793.98;105900;1254;72725;-73
2023/04/23 10:37:18;;;;;;;3.70;2.90;;;;;;;20.58;34.20;99790.95;105814;1254;60448;-74
2023/04/23 10:39:54;;;;;;;6.20;3.30;;;;;;;20.63;34.12;99787.05;105630;1253;60512;-72
2023/04/23 10:42:22;;;;;;;3.80;3.10;;;;;;;20.72;34.20;99784.61;105881;1257;74259;-75
2023/04/23 10:44:52;;;;;;;4.00;3.50;;;;;;;20.83;33.93;99782.27;105869;1253;71195;-72
2023/04/23 10:47:31;;;;;;;4.90;3.20;;;;;;;20.94;33.81;99782.16;105864;1259;72607;-72
2023/04/23 10:50:20;;;;;;;6.40;3.40;;;;;;;21.02;33.17;99777.63;106270;1253;60349;-72
2023/04/23 10:52:53;;;;;;;5.90;3.10;;;;;;;21.13;33.08;99774.67;106398;1255;60517;-73
2023/04/23 10:55:26;;;;;;;4.00;2.90;;;;;;;21.31;32.96;99774.25;105955;1257;74177;-74
2023/04/23 10:57:57;;;;;;;;;;;;;;;21.49;32.24;99773.64;105938;1257;69712;-75
2023/04/23 11:00:45;;;;;;;3.50;3.20;;;;;;;21.54;31.65;99776.94;105825;1255;72398;-74
2023/04/23 11:03:29;;;;;;;5.70;3.60;;;;;;;21.53;31.60;99770.38;105779;1254;61561;-74
2023/04/23 11:06:01;;;;;;;5.40;3.30;;;;;;;21.58;31.57;99769.86;105981;1254;60467;-76
2023/04/23 11:08:33;;;;;;;5.30;3.10;;;;;;;21.64;31.53;99771.29;106087;1255;73058;-72
2023/04/23 11:11:05;;;;;;;4.30;3.20;;;;;;;21.68;31.48;99770.94;105920;1254;69818;-74
2023/04/23 11:13:33;;;;;;;3.90;2.90;;;;;;;21.66;31.25;99772.83;105786;1253;73279;-71
2023/04/23 11:16:20;;;;;;;6.40;3.00;;;;;;;21.56;31.34;99772.81;105944;1257;61422;-75
2023/04/23 11:19:03;;;;;;;3.80;3.10;;;;;;;21.51;31.29;99772.39;105972;1253;60407;-74
2023/04/23 11:22:04;;;;;;;5.60;3.50;;;;;;;21.43;30.89;99771.61;106172;1253;73664;-73
2023/04/23 11:24:36;;;;;;;3.90;3.50;;;;;;;21.32;30.34;99769.90;107213;1253;69109;-74
2023/04/23 11:27:05;;;;;;;3.40;3.00;;;;;;;21.35;30.12;99772.30;106987;1253;71805;-75
2023/04/23 11:29:34;;;;;;;4.40;3.30;;;;;;;21.47;29.73;99765.85;106879;1254;60515;-73
2023/04/23 11:32:04;;;;;;;3.40;3.10;;;;;;;21.62;29.72;99766.34;106740;1256;61052;-74
2023/04/23 11:34:35;;;;;;;4.00;3.50;;;;;;;21.86;29.85;99767.86;106922;1253;73388;-74